sensor_id;sensor_type;location;lat;lon;timestamp;P1;durP1;ratioP1;P2;durP2;ratioP2
54665;SDS011;40566;50.006;36.180;2022-10-16T00:04:30;11.90;;;4.65;;
54665;SDS011;40566;50.006;36.180;2022-10-16T00:09:31;13.95;;;4.75;;
54665;SDS011;40566;50.006;36.180;2022-10-16T00:14:31;8.77;;;3.85;;
54665;SDS011;40566;50.006;36.180;2022-10-16T00:19:32;10.90;;;4.07;;
54665;SDS011;40566;50.006;36.180;2022-10-16T00:24:32;9.90;;;3.70;;
54665;SDS011;40566;50.006;36.180;2022-10-16T00:29:33;9.32;;;3.80;;
54665;SDS011;40566;50.006;36.180;2022-10-16T00:34:34;9.50;;;4.22;;
54665;SDS011;40566;50.006;36.180;2022-10-16T00:39:35;11.60;;;4.13;;
54665;SDS011;40566;50.006;36.180;2022-10-16T00:50:02;9.40;;;4.25;;
54665;SDS011;40566;50.006;36.180;2022-10-16T00:55:08;8.68;;;3.70;;
54665;SDS011;40566;50.006;36.180;2022-10-16T01:00:10;12.23;;;4.15;;
54665;SDS011;40566;50.006;36.180;2022-10-16T01:05:13;15.88;;;6.05;;
54665;SDS011;40566;50.006;36.180;2022-10-16T01:10:24;15.07;;;5.53;;
54665;SDS011;40566;50.006;36.180;2022-10-16T01:21:07;11.55;;;4.20;;
54665;SDS011;40566;50.006;36.180;2022-10-16T01:31:41;12.05;;;4.45;;
54665;SDS011;40566;50.006;36.180;2022-10-16T01:36:51;8.88;;;4.05;;
54665;SDS011;40566;50.006;36.180;2022-10-16T01:42:00;11.52;;;4.15;;
54665;SDS011;40566;50.006;36.180;2022-10-16T01:47:35;8.07;;;3.67;;
54665;SDS011;40566;50.006;36.180;2022-10-16T01:52:38;13.25;;;4.40;;
54665;SDS011;40566;50.006;36.180;2022-10-16T01:57:42;12.45;;;4.30;;
54665;SDS011;40566;50.006;36.180;2022-10-16T02:02:47;8.25;;;3.50;;
54665;SDS011;40566;50.006;36.180;2022-10-16T02:07:50;9.98;;;3.55;;
54665;SDS011;40566;50.006;36.180;2022-10-16T02:12:53;9.10;;;4.50;;
54665;SDS011;40566;50.006;36.180;2022-10-16T02:18:08;8.20;;;3.45;;
54665;SDS011;40566;50.006;36.180;2022-10-16T02:23:12;10.50;;;3.63;;
54665;SDS011;40566;50.006;36.180;2022-10-16T02:28:22;12.00;;;4.00;;
54665;SDS011;40566;50.006;36.180;2022-10-16T02:33:26;12.70;;;4.95;;
54665;SDS011;40566;50.006;36.180;2022-10-16T02:38:28;11.05;;;4.53;;
54665;SDS011;40566;50.006;36.180;2022-10-16T02:43:30;12.05;;;4.65;;
54665;SDS011;40566;50.006;36.180;2022-10-16T02:48:31;10.00;;;4.40;;
54665;SDS011;40566;50.006;36.180;2022-10-16T02:53:31;10.30;;;4.20;;
54665;SDS011;40566;50.006;36.180;2022-10-16T02:58:32;11.48;;;4.80;;
54665;SDS011;40566;50.006;36.180;2022-10-16T03:03:32;13.05;;;4.25;;
54665;SDS011;40566;50.006;36.180;2022-10-16T03:08:33;9.50;;;4.07;;
54665;SDS011;40566;50.006;36.180;2022-10-16T03:13:34;10.43;;;4.40;;
54665;SDS011;40566;50.006;36.180;2022-10-16T03:18:34;11.70;;;4.93;;
54665;SDS011;40566;50.006;36.180;2022-10-16T03:23:35;11.48;;;4.30;;
54665;SDS011;40566;50.006;36.180;2022-10-16T03:28:35;11.50;;;4.40;;
54665;SDS011;40566;50.006;36.180;2022-10-16T03:33:36;10.65;;;4.15;;
54665;SDS011;40566;50.006;36.180;2022-10-16T03:38:37;9.20;;;4.32;;
54665;SDS011;40566;50.006;36.180;2022-10-16T03:43:37;15.50;;;4.38;;
54665;SDS011;40566;50.006;36.180;2022-10-16T03:48:38;10.32;;;4.05;;
54665;SDS011;40566;50.006;36.180;2022-10-16T03:53:40;13.50;;;4.82;;
54665;SDS011;40566;50.006;36.180;2022-10-16T03:58:40;9.90;;;3.78;;
54665;SDS011;40566;50.006;36.180;2022-10-16T04:03:41;15.07;;;4.20;;
54665;SDS011;40566;50.006;36.180;2022-10-16T04:08:42;10.77;;;4.15;;
54665;SDS011;40566;50.006;36.180;2022-10-16T04:13:43;11.65;;;4.75;;
54665;SDS011;40566;50.006;36.180;2022-10-16T04:18:44;15.38;;;5.00;;
54665;SDS011;40566;50.006;36.180;2022-10-16T04:23:45;12.35;;;4.50;;
54665;SDS011;40566;50.006;36.180;2022-10-16T04:28:45;12.93;;;4.78;;
54665;SDS011;40566;50.006;36.180;2022-10-16T04:33:46;13.35;;;5.05;;
54665;SDS011;40566;50.006;36.180;2022-10-16T04:38:46;10.10;;;4.35;;
54665;SDS011;40566;50.006;36.180;2022-10-16T04:43:47;11.52;;;4.32;;
54665;SDS011;40566;50.006;36.180;2022-10-16T04:48:48;17.80;;;5.00;;
54665;SDS011;40566;50.006;36.180;2022-10-16T04:53:48;14.77;;;4.55;;
54665;SDS011;40566;50.006;36.180;2022-10-16T04:58:49;11.73;;;4.15;;
54665;SDS011;40566;50.006;36.180;2022-10-16T05:03:50;13.52;;;4.30;;
54665;SDS011;40566;50.006;36.180;2022-10-16T05:08:51;12.32;;;5.10;;
54665;SDS011;40566;50.006;36.180;2022-10-16T05:13:51;15.18;;;4.45;;
54665;SDS011;40566;50.006;36.180;2022-10-16T05:18:52;11.38;;;4.38;;
54665;SDS011;40566;50.006;36.180;2022-10-16T05:23:53;14.65;;;4.93;;
54665;SDS011;40566;50.006;36.180;2022-10-16T05:28:55;12.68;;;4.65;;
54665;SDS011;40566;50.006;36.180;2022-10-16T05:33:59;13.27;;;4.82;;
54665;SDS011;40566;50.006;36.180;2022-10-16T05:39:00;14.27;;;4.90;;
54665;SDS011;40566;50.006;36.180;2022-10-16T05:44:03;11.85;;;4.72;;
54665;SDS011;40566;50.006;36.180;2022-10-16T05:49:04;15.07;;;5.15;;
54665;SDS011;40566;50.006;36.180;2022-10-16T05:54:05;11.23;;;5.03;;
54665;SDS011;40566;50.006;36.180;2022-10-16T05:59:05;13.75;;;5.72;;
54665;SDS011;40566;50.006;36.180;2022-10-16T06:04:06;11.73;;;5.38;;
54665;SDS011;40566;50.006;36.180;2022-10-16T06:09:09;15.85;;;5.03;;
54665;SDS011;40566;50.006;36.180;2022-10-16T06:14:09;12.75;;;5.60;;
54665;SDS011;40566;50.006;36.180;2022-10-16T06:19:10;13.05;;;5.50;;
54665;SDS011;40566;50.006;36.180;2022-10-16T06:24:10;13.45;;;4.95;;
54665;SDS011;40566;50.006;36.180;2022-10-16T06:29:11;11.82;;;4.95;;
54665;SDS011;40566;50.006;36.180;2022-10-16T06:34:12;18.17;;;5.82;;
54665;SDS011;40566;50.006;36.180;2022-10-16T06:39:12;16.35;;;6.00;;
54665;SDS011;40566;50.006;36.180;2022-10-16T06:44:13;13.13;;;5.38;;
54665;SDS011;40566;50.006;36.180;2022-10-16T06:49:13;12.95;;;5.20;;
54665;SDS011;40566;50.006;36.180;2022-10-16T06:54:21;11.07;;;5.20;;
54665;SDS011;40566;50.006;36.180;2022-10-16T06:59:21;14.65;;;6.53;;
54665;SDS011;40566;50.006;36.180;2022-10-16T07:04:22;15.57;;;6.25;;
54665;SDS011;40566;50.006;36.180;2022-10-16T07:09:23;19.77;;;7.45;;
54665;SDS011;40566;50.006;36.180;2022-10-16T07:14:25;17.73;;;6.85;;
54665;SDS011;40566;50.006;36.180;2022-10-16T07:19:25;17.63;;;7.57;;
54665;SDS011;40566;50.006;36.180;2022-10-16T07:24:26;18.90;;;8.18;;
54665;SDS011;40566;50.006;36.180;2022-10-16T07:29:26;14.95;;;7.28;;
54665;SDS011;40566;50.006;36.180;2022-10-16T07:34:27;18.48;;;7.00;;
54665;SDS011;40566;50.006;36.180;2022-10-16T07:39:28;19.42;;;5.97;;
54665;SDS011;40566;50.006;36.180;2022-10-16T07:44:28;13.07;;;5.93;;
54665;SDS011;40566;50.006;36.180;2022-10-16T07:49:29;11.02;;;5.78;;
54665;SDS011;40566;50.006;36.180;2022-10-16T07:54:30;15.38;;;6.00;;
54665;SDS011;40566;50.006;36.180;2022-10-16T07:59:30;12.15;;;6.03;;
54665;SDS011;40566;50.006;36.180;2022-10-16T08:04:32;14.57;;;6.10;;
54665;SDS011;40566;50.006;36.180;2022-10-16T08:09:32;12.95;;;6.00;;
54665;SDS011;40566;50.006;36.180;2022-10-16T08:14:33;13.43;;;5.65;;
54665;SDS011;40566;50.006;36.180;2022-10-16T08:19:34;16.40;;;5.55;;
54665;SDS011;40566;50.006;36.180;2022-10-16T08:24:34;15.10;;;6.85;;
54665;SDS011;40566;50.006;36.180;2022-10-16T08:29:37;11.93;;;5.05;;
54665;SDS011;40566;50.006;36.180;2022-10-16T08:34:40;10.75;;;5.00;;
54665;SDS011;40566;50.006;36.180;2022-10-16T08:39:41;10.40;;;4.60;;
54665;SDS011;40566;50.006;36.180;2022-10-16T08:50:11;10.55;;;4.90;;
54665;SDS011;40566;50.006;36.180;2022-10-16T09:00:39;10.07;;;4.50;;
54665;SDS011;40566;50.006;36.180;2022-10-16T09:06:01;9.98;;;4.20;;
54665;SDS011;40566;50.006;36.180;2022-10-16T09:11:35;9.55;;;4.60;;
54665;SDS011;40566;50.006;36.180;2022-10-16T09:16:57;9.68;;;3.75;;
54665;SDS011;40566;50.006;36.180;2022-10-16T09:22:10;11.45;;;4.35;;
54665;SDS011;40566;50.006;36.180;2022-10-16T09:27:16;7.80;;;2.83;;
54665;SDS011;40566;50.006;36.180;2022-10-16T09:32:19;10.95;;;2.63;;
54665;SDS011;40566;50.006;36.180;2022-10-16T09:37:21;13.23;;;4.32;;
54665;SDS011;40566;50.006;36.180;2022-10-16T09:42:27;15.82;;;4.80;;
54665;SDS011;40566;50.006;36.180;2022-10-16T09:47:35;6.30;;;2.30;;
54665;SDS011;40566;50.006;36.180;2022-10-16T09:57:50;8.43;;;2.75;;
54665;SDS011;40566;50.006;36.180;2022-10-16T10:02:52;8.02;;;2.67;;
54665;SDS011;40566;50.006;36.180;2022-10-16T10:07:57;5.28;;;2.05;;
54665;SDS011;40566;50.006;36.180;2022-10-16T10:12:59;7.40;;;2.67;;
54665;SDS011;40566;50.006;36.180;2022-10-16T10:18:01;6.32;;;2.72;;
54665;SDS011;40566;50.006;36.180;2022-10-16T10:23:25;8.85;;;2.80;;
54665;SDS011;40566;50.006;36.180;2022-10-16T10:28:47;6.95;;;2.40;;
54665;SDS011;40566;50.006;36.180;2022-10-16T10:39:30;8.27;;;2.67;;
54665;SDS011;40566;50.006;36.180;2022-10-16T10:50:18;7.55;;;3.05;;
54665;SDS011;40566;50.006;36.180;2022-10-16T11:06:12;9.93;;;2.70;;
54665;SDS011;40566;50.006;36.180;2022-10-16T11:11:41;9.73;;;3.13;;
54665;SDS011;40566;50.006;36.180;2022-10-16T11:27:21;8.48;;;3.30;;
54665;SDS011;40566;50.006;36.180;2022-10-16T11:37:51;8.77;;;3.65;;
54665;SDS011;40566;50.006;36.180;2022-10-16T11:42:58;9.82;;;3.72;;
54665;SDS011;40566;50.006;36.180;2022-10-16T11:54:13;9.07;;;3.25;;
54665;SDS011;40566;50.006;36.180;2022-10-16T11:59:53;8.82;;;3.83;;
54665;SDS011;40566;50.006;36.180;2022-10-16T12:05:01;7.93;;;2.90;;
54665;SDS011;40566;50.006;36.180;2022-10-16T12:10:23;7.05;;;3.30;;
54665;SDS011;40566;50.006;36.180;2022-10-16T12:15:30;11.25;;;5.55;;
54665;SDS011;40566;50.006;36.180;2022-10-16T12:20:33;10.52;;;4.35;;
54665;SDS011;40566;50.006;36.180;2022-10-16T12:25:36;10.63;;;3.78;;
54665;SDS011;40566;50.006;36.180;2022-10-16T12:30:53;10.43;;;3.45;;
54665;SDS011;40566;50.006;36.180;2022-10-16T12:35:56;9.25;;;3.38;;
54665;SDS011;40566;50.006;36.180;2022-10-16T12:41:00;8.60;;;3.70;;
54665;SDS011;40566;50.006;36.180;2022-10-16T13:02:06;9.45;;;4.05;;
54665;SDS011;40566;50.006;36.180;2022-10-16T13:07:27;13.27;;;5.45;;
54665;SDS011;40566;50.006;36.180;2022-10-16T13:23:26;9.50;;;3.25;;
54665;SDS011;40566;50.006;36.180;2022-10-16T13:28:34;10.15;;;4.55;;
54665;SDS011;40566;50.006;36.180;2022-10-16T13:33:39;13.43;;;5.63;;
54665;SDS011;40566;50.006;36.180;2022-10-16T13:38:42;8.65;;;4.00;;
54665;SDS011;40566;50.006;36.180;2022-10-16T13:43:43;8.90;;;3.60;;
54665;SDS011;40566;50.006;36.180;2022-10-16T13:48:57;15.98;;;5.72;;
54665;SDS011;40566;50.006;36.180;2022-10-16T13:54:07;9.27;;;3.45;;
54665;SDS011;40566;50.006;36.180;2022-10-16T13:59:26;9.95;;;3.72;;
54665;SDS011;40566;50.006;36.180;2022-10-16T14:04:33;11.82;;;4.40;;
54665;SDS011;40566;50.006;36.180;2022-10-16T14:09:40;13.25;;;5.10;;
54665;SDS011;40566;50.006;36.180;2022-10-16T14:14:42;15.48;;;6.47;;
54665;SDS011;40566;50.006;36.180;2022-10-16T14:19:50;25.85;;;11.05;;
54665;SDS011;40566;50.006;36.180;2022-10-16T14:24:53;21.25;;;9.80;;
54665;SDS011;40566;50.006;36.180;2022-10-16T14:30:12;17.08;;;7.60;;
54665;SDS011;40566;50.006;36.180;2022-10-16T14:40:30;33.42;;;13.30;;
54665;SDS011;40566;50.006;36.180;2022-10-16T14:45:33;18.42;;;9.30;;
54665;SDS011;40566;50.006;36.180;2022-10-16T14:50:35;19.65;;;8.15;;
54665;SDS011;40566;50.006;36.180;2022-10-16T14:55:36;17.55;;;8.65;;
54665;SDS011;40566;50.006;36.180;2022-10-16T15:00:37;29.60;;;13.30;;
54665;SDS011;40566;50.006;36.180;2022-10-16T15:05:38;46.67;;;19.52;;
54665;SDS011;40566;50.006;36.180;2022-10-16T15:10:40;38.05;;;18.15;;
54665;SDS011;40566;50.006;36.180;2022-10-16T15:15:43;28.80;;;14.40;;
54665;SDS011;40566;50.006;36.180;2022-10-16T15:20:47;26.20;;;14.18;;
54665;SDS011;40566;50.006;36.180;2022-10-16T15:25:50;23.80;;;14.20;;
54665;SDS011;40566;50.006;36.180;2022-10-16T15:30:53;30.00;;;13.70;;
54665;SDS011;40566;50.006;36.180;2022-10-16T15:35:55;26.42;;;11.35;;
54665;SDS011;40566;50.006;36.180;2022-10-16T15:40:56;24.92;;;12.07;;
54665;SDS011;40566;50.006;36.180;2022-10-16T15:46:02;32.70;;;15.73;;
54665;SDS011;40566;50.006;36.180;2022-10-16T15:51:05;31.05;;;15.50;;
54665;SDS011;40566;50.006;36.180;2022-10-16T15:56:09;32.53;;;14.85;;
54665;SDS011;40566;50.006;36.180;2022-10-16T16:01:11;28.67;;;12.80;;
54665;SDS011;40566;50.006;36.180;2022-10-16T16:06:12;23.33;;;9.07;;
54665;SDS011;40566;50.006;36.180;2022-10-16T16:11:14;25.15;;;9.82;;
54665;SDS011;40566;50.006;36.180;2022-10-16T16:16:16;34.03;;;11.18;;
54665;SDS011;40566;50.006;36.180;2022-10-16T16:21:18;41.60;;;14.80;;
54665;SDS011;40566;50.006;36.180;2022-10-16T16:26:23;37.08;;;12.10;;
54665;SDS011;40566;50.006;36.180;2022-10-16T16:31:27;32.22;;;13.82;;
54665;SDS011;40566;50.006;36.180;2022-10-16T16:36:28;26.90;;;10.45;;
54665;SDS011;40566;50.006;36.180;2022-10-16T16:41:29;29.42;;;11.07;;
54665;SDS011;40566;50.006;36.180;2022-10-16T16:46:31;44.22;;;18.58;;
54665;SDS011;40566;50.006;36.180;2022-10-16T16:51:32;65.65;;;20.08;;
54665;SDS011;40566;50.006;36.180;2022-10-16T16:56:33;46.30;;;15.98;;
54665;SDS011;40566;50.006;36.180;2022-10-16T17:01:34;34.08;;;13.43;;
54665;SDS011;40566;50.006;36.180;2022-10-16T17:06:35;29.13;;;12.50;;
54665;SDS011;40566;50.006;36.180;2022-10-16T17:11:36;24.85;;;11.27;;
54665;SDS011;40566;50.006;36.180;2022-10-16T17:16:37;21.92;;;9.45;;
54665;SDS011;40566;50.006;36.180;2022-10-16T17:21:40;20.08;;;8.85;;
54665;SDS011;40566;50.006;36.180;2022-10-16T17:26:41;19.10;;;8.20;;
54665;SDS011;40566;50.006;36.180;2022-10-16T17:31:47;22.33;;;8.77;;
54665;SDS011;40566;50.006;36.180;2022-10-16T17:36:51;21.15;;;8.18;;
54665;SDS011;40566;50.006;36.180;2022-10-16T17:41:52;38.30;;;14.40;;
54665;SDS011;40566;50.006;36.180;2022-10-16T17:46:53;32.60;;;12.82;;
54665;SDS011;40566;50.006;36.180;2022-10-16T17:51:54;30.40;;;11.30;;
54665;SDS011;40566;50.006;36.180;2022-10-16T17:56:55;29.17;;;11.02;;
54665;SDS011;40566;50.006;36.180;2022-10-16T18:01:55;28.88;;;12.57;;
54665;SDS011;40566;50.006;36.180;2022-10-16T18:06:56;28.95;;;11.25;;
54665;SDS011;40566;50.006;36.180;2022-10-16T18:11:57;29.35;;;11.63;;
54665;SDS011;40566;50.006;36.180;2022-10-16T18:17:00;48.15;;;15.98;;
54665;SDS011;40566;50.006;36.180;2022-10-16T18:22:01;30.48;;;11.75;;
54665;SDS011;40566;50.006;36.180;2022-10-16T18:27:01;22.40;;;9.45;;
54665;SDS011;40566;50.006;36.180;2022-10-16T18:32:02;23.38;;;12.23;;
54665;SDS011;40566;50.006;36.180;2022-10-16T18:37:03;28.05;;;10.05;;
54665;SDS011;40566;50.006;36.180;2022-10-16T18:42:03;17.50;;;8.65;;
54665;SDS011;40566;50.006;36.180;2022-10-16T18:47:04;23.75;;;9.25;;
54665;SDS011;40566;50.006;36.180;2022-10-16T18:52:05;16.95;;;6.85;;
54665;SDS011;40566;50.006;36.180;2022-10-16T18:57:06;13.68;;;5.13;;
54665;SDS011;40566;50.006;36.180;2022-10-16T19:02:07;12.23;;;5.35;;
54665;SDS011;40566;50.006;36.180;2022-10-16T19:07:09;17.42;;;6.82;;
54665;SDS011;40566;50.006;36.180;2022-10-16T19:12:10;18.77;;;8.13;;
54665;SDS011;40566;50.006;36.180;2022-10-16T19:17:10;21.90;;;9.38;;
54665;SDS011;40566;50.006;36.180;2022-10-16T19:22:11;23.38;;;10.02;;
54665;SDS011;40566;50.006;36.180;2022-10-16T19:27:26;21.20;;;9.32;;
54665;SDS011;40566;50.006;36.180;2022-10-16T19:32:27;22.58;;;10.23;;
54665;SDS011;40566;50.006;36.180;2022-10-16T19:37:27;27.15;;;14.57;;
54665;SDS011;40566;50.006;36.180;2022-10-16T19:42:28;26.35;;;9.98;;
54665;SDS011;40566;50.006;36.180;2022-10-16T19:47:30;34.00;;;12.27;;
54665;SDS011;40566;50.006;36.180;2022-10-16T19:52:31;31.08;;;10.23;;
54665;SDS011;40566;50.006;36.180;2022-10-16T19:57:33;20.67;;;7.82;;
54665;SDS011;40566;50.006;36.180;2022-10-16T20:02:34;19.77;;;8.05;;
54665;SDS011;40566;50.006;36.180;2022-10-16T20:07:35;16.30;;;6.93;;
54665;SDS011;40566;50.006;36.180;2022-10-16T20:12:36;18.55;;;7.78;;
54665;SDS011;40566;50.006;36.180;2022-10-16T20:17:36;17.02;;;7.35;;
54665;SDS011;40566;50.006;36.180;2022-10-16T20:22:39;19.42;;;8.13;;
54665;SDS011;40566;50.006;36.180;2022-10-16T20:27:40;24.48;;;7.90;;
54665;SDS011;40566;50.006;36.180;2022-10-16T20:32:40;22.35;;;8.05;;
54665;SDS011;40566;50.006;36.180;2022-10-16T20:37:41;26.52;;;10.50;;
54665;SDS011;40566;50.006;36.180;2022-10-16T20:42:43;35.28;;;12.68;;
54665;SDS011;40566;50.006;36.180;2022-10-16T20:47:44;26.33;;;9.40;;
54665;SDS011;40566;50.006;36.180;2022-10-16T20:52:44;16.65;;;6.65;;
54665;SDS011;40566;50.006;36.180;2022-10-16T20:57:45;14.98;;;6.13;;
54665;SDS011;40566;50.006;36.180;2022-10-16T21:02:50;16.63;;;6.05;;
54665;SDS011;40566;50.006;36.180;2022-10-16T21:07:51;19.23;;;5.93;;
54665;SDS011;40566;50.006;36.180;2022-10-16T21:12:52;15.70;;;6.25;;
54665;SDS011;40566;50.006;36.180;2022-10-16T21:17:56;16.83;;;6.55;;
54665;SDS011;40566;50.006;36.180;2022-10-16T21:22:57;14.05;;;6.03;;
54665;SDS011;40566;50.006;36.180;2022-10-16T21:27:57;13.70;;;6.03;;
54665;SDS011;40566;50.006;36.180;2022-10-16T21:32:58;16.02;;;6.80;;
54665;SDS011;40566;50.006;36.180;2022-10-16T21:37:58;19.98;;;9.52;;
54665;SDS011;40566;50.006;36.180;2022-10-16T21:42:59;17.50;;;7.22;;
54665;SDS011;40566;50.006;36.180;2022-10-16T21:48:00;17.20;;;7.07;;
54665;SDS011;40566;50.006;36.180;2022-10-16T21:53:01;15.60;;;6.68;;
54665;SDS011;40566;50.006;36.180;2022-10-16T21:58:01;16.90;;;6.18;;
54665;SDS011;40566;50.006;36.180;2022-10-16T22:03:02;12.82;;;6.35;;
54665;SDS011;40566;50.006;36.180;2022-10-16T22:08:03;14.77;;;6.07;;
54665;SDS011;40566;50.006;36.180;2022-10-16T22:13:03;17.08;;;6.53;;
54665;SDS011;40566;50.006;36.180;2022-10-16T22:18:04;21.98;;;8.07;;
54665;SDS011;40566;50.006;36.180;2022-10-16T22:23:04;30.58;;;11.60;;
54665;SDS011;40566;50.006;36.180;2022-10-16T22:28:05;31.52;;;11.70;;
54665;SDS011;40566;50.006;36.180;2022-10-16T22:33:06;30.63;;;10.15;;
54665;SDS011;40566;50.006;36.180;2022-10-16T22:38:07;32.42;;;11.65;;
54665;SDS011;40566;50.006;36.180;2022-10-16T22:43:07;28.35;;;11.25;;
54665;SDS011;40566;50.006;36.180;2022-10-16T22:48:08;24.70;;;8.27;;
54665;SDS011;40566;50.006;36.180;2022-10-16T22:53:09;17.05;;;7.07;;
54665;SDS011;40566;50.006;36.180;2022-10-16T22:58:09;21.23;;;6.15;;
54665;SDS011;40566;50.006;36.180;2022-10-16T23:03:10;16.52;;;5.93;;
54665;SDS011;40566;50.006;36.180;2022-10-16T23:08:11;16.52;;;5.85;;
54665;SDS011;40566;50.006;36.180;2022-10-16T23:13:12;11.23;;;4.75;;
54665;SDS011;40566;50.006;36.180;2022-10-16T23:18:13;11.93;;;5.30;;
54665;SDS011;40566;50.006;36.180;2022-10-16T23:23:14;13.65;;;5.30;;
54665;SDS011;40566;50.006;36.180;2022-10-16T23:28:14;12.15;;;5.07;;
54665;SDS011;40566;50.006;36.180;2022-10-16T23:33:15;12.85;;;5.63;;
54665;SDS011;40566;50.006;36.180;2022-10-16T23:38:15;13.40;;;4.82;;
54665;SDS011;40566;50.006;36.180;2022-10-16T23:43:16;11.05;;;4.63;;
54665;SDS011;40566;50.006;36.180;2022-10-16T23:48:16;12.50;;;5.25;;
54665;SDS011;40566;50.006;36.180;2022-10-16T23:53:17;14.43;;;5.13;;
54665;SDS011;40566;50.006;36.180;2022-10-16T23:58:18;14.65;;;5.20;;
